Time;durP1;ratioP1;P1;durP2;ratioP2;P2;SDS_P1;SDS_P2;PMS_P1;PMS_P2;Temp;Humidity;BMP_temperature;BMP_pressure;BME280_temperature;BME280_humidity;BME280_pressure;Samples;Min_cycle;Max_cycle;Signal;HPM_P1;HPM_P2
2022/10/22 00:01:15;;;;;;;158.80;64.60;;;;;;;16.04;100.00;100429.81;4880340;29;20041;-82
2022/10/22 00:03:40;;;;;;;155.45;63.75;;;;;;;16.17;100.00;100449.63;4879844;29;20438;-82
2022/10/22 00:06:06;;;;;;;143.38;61.53;;;;;;;16.11;100.00;100461.94;4880332;29;20037;-82
2022/10/22 00:08:32;;;;;;;137.13;59.78;;;;;;;16.18;100.00;100451.25;4880935;29;20387;-82
2022/10/22 00:10:57;;;;;;;139.75;61.53;;;;;;;16.17;100.00;100452.31;4880003;29;20033;-83
2022/10/22 00:13:26;;;;;;;140.10;62.40;;;;;;;16.19;100.00;100453.75;4879723;29;20060;-83
2022/10/22 00:15:55;;;;;;;142.77;62.85;;;;;;;16.10;100.00;100464.81;4880071;29;20033;-82
2022/10/22 00:18:20;;;;;;;161.10;64.88;;;;;;;16.10;100.00;100470.16;4879868;29;20044;-83
2022/10/22 00:20:46;;;;;;;156.25;65.93;;;;;;;15.97;100.00;100466.38;4879766;29;20390;-81
2022/10/22 00:23:11;;;;;;;155.35;66.75;;;;;;;15.86;100.00;100458.13;4879466;29;20037;-83
2022/10/22 00:25:37;;;;;;;157.40;68.22;;;;;;;15.79;100.00;100463.44;4879926;29;20049;-83
2022/10/22 00:28:02;;;;;;;150.50;65.22;;;;;;;15.77;100.00;100486.88;4878457;29;20573;-83
2022/10/22 00:30:28;;;;;;;133.00;60.22;;;;;;;15.85;100.00;100478.66;4879851;29;20025;-83
2022/10/22 00:32:56;;;;;;;121.03;58.30;;;;;;;15.86;100.00;100480.34;4879665;29;20055;-83
2022/10/22 00:35:22;;;;;;;125.50;59.40;;;;;;;15.86;100.00;100458.94;4879551;29;20037;-82
2022/10/22 00:37:47;;;;;;;130.10;58.60;;;;;;;15.81;100.00;100474.75;4879636;29;20033;-83
2022/10/22 00:40:13;;;;;;;120.40;56.42;;;;;;;15.80;100.00;100473.09;4879662;29;20041;-83
2022/10/22 00:42:38;;;;;;;109.88;56.88;;;;;;;15.82;100.00;100464.88;4882125;29;20120;-82
2022/10/22 00:45:07;;;;;;;105.07;53.28;;;;;;;15.82;100.00;100465.72;4883349;29;20027;-83
2022/10/22 00:47:35;;;;;;;108.68;53.28;;;;;;;15.91;100.00;100467.19;4883531;29;20036;-82
2022/10/22 00:50:03;;;;;;;105.32;54.40;;;;;;;15.67;100.00;100456.16;4883531;29;20172;-84
2022/10/22 00:52:29;;;;;;;103.97;52.15;;;;;;;15.81;100.00;100450.69;4883626;29;20470;-83
2022/10/22 00:54:55;;;;;;;106.75;52.95;;;;;;;15.71;100.00;100439.53;4883425;29;20037;-85
2022/10/22 00:57:22;;;;;;;101.43;53.53;;;;;;;15.68;100.00;100423.91;4883519;29;20475;-84
2022/10/22 00:59:48;;;;;;;96.78;50.97;;;;;;;15.71;100.00;100423.50;4883320;29;20040;-84
2022/10/22 01:02:13;;;;;;;97.28;51.50;;;;;;;15.62;100.00;100424.69;4883643;29;20045;-83
2022/10/22 01:04:39;;;;;;;91.50;49.92;;;;;;;15.69;100.00;100393.50;4882934;29;20045;-83
2022/10/22 01:07:05;;;;;;;99.00;52.05;;;;;;;15.51;100.00;100402.00;4883020;29;20065;-84
2022/10/22 01:09:49;;;;;;;97.72;51.58;;;;;;;15.49;100.00;100403.25;4882195;29;20112;-85
2022/10/22 01:12:26;;;;;;;94.20;51.70;;;;;;;15.53;100.00;100399.16;4883058;29;20079;-83
2022/10/22 01:15:20;;;;;;;96.63;50.88;;;;;;;15.62;100.00;100397.97;4882862;29;20033;-82
2022/10/22 01:17:52;;;;;;;97.72;48.35;;;;;;;15.62;100.00;100407.84;4879984;29;20099;-82
2022/10/22 01:20:47;;;;;;;86.43;48.67;;;;;;;15.60;100.00;100405.38;4883104;29;20065;-84
2022/10/22 01:23:43;;;;;;;81.68;47.50;;;;;;;15.49;100.00;100411.25;4883096;29;20062;-83
2022/10/22 01:26:44;;;;;;;92.85;49.90;;;;;;;15.40;100.00;100420.41;4882852;29;20133;-84
2022/10/22 01:29:17;;;;;;;96.28;50.33;;;;;;;15.30;100.00;100419.94;4862585;29;20048;-83
2022/10/22 01:31:53;;;;;;;111.47;51.60;;;;;;;15.34;100.00;100397.19;4879664;29;20136;-84
2022/10/22 01:34:19;;;;;;;91.00;49.70;;;;;;;15.40;100.00;100404.41;4883248;29;20423;-83
2022/10/22 01:36:46;;;;;;;96.35;52.10;;;;;;;15.47;100.00;100386.56;4883726;29;20033;-83
2022/10/22 01:39:14;;;;;;;87.25;48.92;;;;;;;15.38;100.00;100393.06;4888153;29;20033;-83
2022/10/22 01:41:44;;;;;;;86.75;48.80;;;;;;;15.39;100.00;100376.03;4893251;29;20101;-83
2022/10/22 01:44:31;;;;;;;90.50;48.58;;;;;;;15.44;100.00;100368.28;4894617;29;20096;-83
2022/10/22 01:47:31;;;;;;;88.90;48.65;;;;;;;15.55;100.00;100374.91;4883759;29;20127;-83
2022/10/22 01:50:13;;;;;;;84.18;47.63;;;;;;;15.44;100.00;100362.94;4880284;29;20103;-83
2022/10/22 01:52:57;;;;;;;87.00;48.15;;;;;;;15.40;100.00;100356.31;4882199;29;20077;-84
2022/10/22 01:55:42;;;;;;;84.72;46.85;;;;;;;15.37;100.00;100346.88;4882626;29;20037;-85
2022/10/22 01:58:32;;;;;;;86.35;47.80;;;;;;;15.36;100.00;100363.06;4882463;29;20049;-83
2022/10/22 02:01:24;;;;;;;93.72;51.80;;;;;;;15.18;100.00;100362.78;4882378;29;20036;-83
2022/10/22 02:04:03;;;;;;;96.00;50.45;;;;;;;15.20;100.00;100374.06;4882395;29;20133;-83
2022/10/22 02:06:31;;;;;;;104.35;51.92;;;;;;;15.19;100.00;100343.03;4880822;29;20575;-83
2022/10/22 02:08:59;;;;;;;93.63;50.60;;;;;;;15.31;100.00;100346.84;4882250;29;20115;-83
2022/10/22 02:11:25;;;;;;;91.43;49.47;;;;;;;15.38;100.00;100345.00;4882093;29;20111;-84
2022/10/22 02:13:55;;;;;;;88.53;49.22;;;;;;;15.37;100.00;100330.03;4882665;29;20033;-84
2022/10/22 02:16:27;;;;;;;85.45;47.92;;;;;;;15.31;100.00;100346.84;4882072;29;20140;-81
2022/10/22 02:18:55;;;;;;;87.82;46.30;;;;;;;15.30;100.00;100353.19;4880666;29;20185;-86
2022/10/22 02:21:21;;;;;;;88.38;47.25;;;;;;;15.34;100.00;100349.09;4882250;29;20041;-84
2022/10/22 02:23:48;;;;;;;85.28;45.20;;;;;;;15.25;100.00;100342.25;4882017;29;20390;-84
2022/10/22 02:26:21;;;;;;;83.43;46.40;;;;;;;15.34;100.00;100341.94;4881547;29;20045;-84
2022/10/22 02:29:13;;;;;;;81.93;45.47;;;;;;;15.32;100.00;100361.81;4881829;29;20550;-84
2022/10/22 02:31:43;;;;;;;67.30;33.67;;;;;;;15.31;100.00;100354.84;4881645;29;20041;-83
2022/10/22 02:34:14;;;;;;;77.07;43.70;;;;;;;15.28;100.00;100363.25;4881706;29;20045;-84
2022/10/22 02:36:42;;;;;;;78.05;44.92;;;;;;;15.43;100.00;100339.91;4881441;29;20040;-83
2022/10/22 02:39:09;;;;;;;79.35;43.55;;;;;;;15.34;100.00;100333.91;4881579;29;20062;-84
2022/10/22 02:41:36;;;;;;;73.47;42.75;;;;;;;15.35;100.00;100348.06;4881426;29;20049;-82
2022/10/22 02:44:07;;;;;;;73.18;43.85;;;;;;;15.22;100.00;100348.00;4880140;29;20041;-84
2022/10/22 02:46:33;;;;;;;85.40;46.05;;;;;;;15.21;100.00;100338.34;4879909;29;20097;-83
2022/10/22 02:48:58;;;;;;;84.53;46.17;;;;;;;15.30;100.00;100329.16;4881380;29;20402;-82
2022/10/22 02:51:24;;;;;;;84.40;46.95;;;;;;;15.22;100.00;100327.47;4880285;29;20390;-83
2022/10/22 02:53:50;;;;;;;86.03;47.80;;;;;;;15.11;100.00;100308.53;4879900;29;20374;-84
2022/10/22 02:56:15;;;;;;;84.13;47.50;;;;;;;15.17;100.00;100300.53;4880999;29;20025;-83
2022/10/22 02:58:41;;;;;;;89.15;46.70;;;;;;;15.17;100.00;100294.38;4881084;29;20084;-85
2022/10/22 03:01:07;;;;;;;80.70;44.75;;;;;;;15.20;100.00;100294.81;4881156;29;20049;-83
2022/10/22 03:03:32;;;;;;;81.82;45.22;;;;;;;15.12;100.00;100299.47;4881351;29;20080;-84
2022/10/22 03:05:58;;;;;;;94.13;47.38;;;;;;;15.13;100.00;100296.63;4880827;29;20137;-83
2022/10/22 03:08:23;;;;;;;78.95;46.33;;;;;;;15.07;100.00;100308.09;4881231;29;20073;-83
2022/10/22 03:10:49;;;;;;;86.72;47.10;;;;;;;15.05;100.00;100286.09;4879893;29;20044;-83
2022/10/22 03:13:14;;;;;;;94.25;46.92;;;;;;;14.94;100.00;100292.00;4881419;29;20132;-85
2022/10/22 03:15:40;;;;;;;87.18;46.00;;;;;;;15.08;100.00;100306.25;4881384;29;20037;-83
2022/10/22 03:18:05;;;;;;;84.22;47.80;;;;;;;15.16;100.00;100276.69;4882097;29;20048;-82
2022/10/22 03:20:31;;;;;;;86.68;45.20;;;;;;;15.14;100.00;100278.75;4885136;29;20104;-82
2022/10/22 03:22:56;;;;;;;87.38;45.33;;;;;;;15.13;100.00;100293.13;4888404;29;20057;-84
2022/10/22 03:25:25;;;;;;;85.80;44.00;;;;;;;15.04;100.00;100286.28;4894459;29;20056;-83
2022/10/22 03:27:54;;;;;;;81.82;46.08;;;;;;;14.99;100.00;100293.03;4901024;29;20055;-82
2022/10/22 03:30:20;;;;;;;84.05;45.45;;;;;;;15.02;100.00;100292.66;4897785;29;20044;-83
2022/10/22 03:32:45;;;;;;;96.53;45.45;;;;;;;15.02;100.00;100287.31;4897118;29;20041;-83
2022/10/22 03:35:11;;;;;;;73.05;43.05;;;;;;;14.92;100.00;100268.16;4897396;29;20061;-84
2022/10/22 03:37:37;;;;;;;89.13;45.92;;;;;;;14.91;100.00;100271.84;4897393;29;20048;-83
2022/10/22 03:40:06;;;;;;;94.10;48.50;;;;;;;14.89;100.00;100281.06;4896675;29;20071;-83
2022/10/22 03:42:32;;;;;;;88.68;46.42;;;;;;;14.94;100.00;100275.97;4890741;29;20128;-84
2022/10/22 03:44:57;;;;;;;85.90;45.42;;;;;;;15.00;100.00;100281.34;4882133;29;20124;-83
2022/10/22 03:47:23;;;;;;;78.32;44.65;;;;;;;14.95;100.00;100275.75;4881639;29;20036;-82
2022/10/22 03:49:50;;;;;;;79.90;44.03;;;;;;;15.12;100.00;100288.78;4880920;29;20029;-84
2022/10/22 03:52:16;;;;;;;80.45;43.85;;;;;;;15.20;100.00;100280.63;4881413;29;20041;-83
2022/10/22 03:54:42;;;;;;;81.00;43.55;;;;;;;15.12;100.00;100291.47;4880655;29;20033;-83
2022/10/22 03:57:08;;;;;;;77.75;41.40;;;;;;;15.18;100.00;100293.38;4880412;29;20048;-84
2022/10/22 03:59:36;;;;;;;72.55;40.00;;;;;;;15.21;100.00;100292.97;4880623;29;20068;-83
2022/10/22 04:02:01;;;;;;;75.38;41.25;;;;;;;15.25;100.00;100295.03;4881767;29;20085;-83
2022/10/22 04:04:27;;;;;;;73.70;41.25;;;;;;;15.32;100.00;100300.41;4888760;29;20395;-84
2022/10/22 04:06:52;;;;;;;75.78;40.88;;;;;;;15.12;100.00;100300.28;4900755;29;20553;-83
2022/10/22 04:09:18;;;;;;;70.90;39.15;;;;;;;15.30;100.00;100302.44;4900274;29;20068;-85
2022/10/22 04:11:43;;;;;;;80.13;39.65;;;;;;;15.20;100.00;100293.97;4902816;29;20071;-84
2022/10/22 04:14:10;;;;;;;65.78;38.85;;;;;;;15.24;100.00;100321.94;4903724;29;20041;-83
2022/10/22 04:16:38;;;;;;;65.45;37.88;;;;;;;15.22;100.00;100302.59;4904261;29;20058;-84
2022/10/22 04:19:03;;;;;;;71.13;39.65;;;;;;;15.15;100.00;100307.06;4904265;29;20449;-83
2022/10/22 04:21:50;;;;;;;77.68;39.60;;;;;;;15.00;100.00;100297.38;4910074;29;20020;-83
2022/10/22 04:24:16;;;;;;;70.57;40.53;;;;;;;15.04;100.00;100297.81;4921416;29;20028;-83
2022/10/22 04:26:42;;;;;;;77.88;39.85;;;;;;;15.14;100.00;100303.63;4922305;29;20048;-82
2022/10/22 04:29:08;;;;;;;76.60;39.45;;;;;;;15.01;100.00;100301.66;4918553;29;20097;-81
2022/10/22 04:31:34;;;;;;;77.03;41.80;;;;;;;14.93;100.00;100283.16;4920703;29;20044;-81
2022/10/22 04:34:00;;;;;;;79.07;42.58;;;;;;;14.99;100.00;100297.53;4918641;29;20052;-80
2022/10/22 04:36:27;;;;;;;81.07;44.42;;;;;;;14.82;100.00;100278.34;4905735;29;20037;-81
2022/10/22 04:38:58;;;;;;;80.38;43.97;;;;;;;14.85;100.00;100266.47;4898812;29;20043;-80
2022/10/22 04:41:27;;;;;;;80.72;43.63;;;;;;;14.86;100.00;100290.28;4898382;29;20045;-82
2022/10/22 04:43:54;;;;;;;80.25;44.42;;;;;;;14.71;100.00;100284.25;4881303;29;20406;-82
2022/10/22 04:46:20;;;;;;;80.32;44.63;;;;;;;14.75;100.00;100293.50;4898189;29;20112;-84
2022/10/22 04:48:46;;;;;;;78.85;42.55;;;;;;;14.90;100.00;100296.06;4894290;29;20065;-87
2022/10/22 04:51:17;;;;;;;73.20;42.10;;;;;;;14.96;100.00;100285.44;4885590;29;20483;-82
2022/10/22 04:53:43;;;;;;;77.00;43.45;;;;;;;15.16;100.00;100295.38;4882421;29;20063;-84
2022/10/22 04:56:29;;;;;;;72.60;39.88;;;;;;;15.16;100.00;100284.72;4892069;29;20076;-84
2022/10/22 04:59:01;;;;;;;71.63;39.65;;;;;;;15.01;100.00;100282.97;4888114;29;20534;-86
2022/10/22 05:01:33;;;;;;;69.30;38.67;;;;;;;15.01;100.00;100276.84;4877729;29;20439;-84
2022/10/22 05:04:01;;;;;;;73.45;40.13;;;;;;;14.98;100.00;100280.72;4883997;29;20049;-87
2022/10/22 05:06:28;;;;;;;72.40;40.72;;;;;;;15.10;100.00;100264.97;4880243;29;20037;-86
2022/10/22 05:08:56;;;;;;;65.20;38.55;;;;;;;15.27;100.00;100271.63;4879901;29;20733;-87
2022/10/22 05:11:27;;;;;;;74.90;39.08;;;;;;;15.29;100.00;100269.59;4879741;29;20061;-85
2022/10/22 05:13:54;;;;;;;66.20;38.35;;;;;;;15.26;100.00;100266.47;4882792;29;20101;-83
2022/10/22 05:16:20;;;;;;;65.55;36.72;;;;;;;15.30;100.00;100265.06;4862435;29;20076;-84
2022/10/22 05:18:45;;;;;;;62.40;36.50;;;;;;;15.35;100.00;100255.44;4878332;29;20435;-83
2022/10/22 05:21:19;;;;;;;64.10;36.72;;;;;;;15.49;100.00;100253.66;4882246;29;20045;-88
2022/10/22 05:23:48;;;;;;;58.13;36.22;;;;;;;15.42;100.00;100248.28;4880441;29;20513;-85
2022/10/22 05:26:16;;;;;;;58.42;33.65;;;;;;;15.69;100.00;100248.38;4862948;29;20040;-85
2022/10/22 05:36:47;;;;;;;72.53;34.38;;;;;;;15.39;100.00;100253.19;4798782;23;20053;-82
2022/10/22 05:39:13;;;;;;;54.55;33.30;;;;;;;15.56;100.00;100243.84;4881683;29;20695;-84
2022/10/22 05:41:39;;;;;;;59.92;33.75;;;;;;;15.60;100.00;100255.78;4878583;29;20091;-82
2022/10/22 05:44:04;;;;;;;55.17;32.75;;;;;;;15.66;100.00;100249.63;4876566;29;20439;-83
2022/10/22 05:46:34;;;;;;;61.08;32.72;;;;;;;15.57;100.00;100258.03;4879416;29;20391;-83
2022/10/22 05:49:03;;;;;;;59.38;32.50;;;;;;;15.53;100.00;100270.94;4876400;29;20092;-82
2022/10/22 05:51:30;;;;;;;55.72;32.85;;;;;;;15.55;100.00;100268.88;4879165;29;20132;-83
2022/10/22 05:53:59;;;;;;;66.13;35.42;;;;;;;15.50;100.00;100272.19;4880887;29;20092;-83
2022/10/22 05:56:26;;;;;;;58.35;31.75;;;;;;;15.91;100.00;100268.56;4884352;29;20124;-81
2022/10/22 05:58:52;;;;;;;49.40;29.38;;;;;;;15.80;100.00;100275.34;4883909;29;20033;-82
2022/10/22 06:01:23;;;;;;;57.75;32.25;;;;;;;15.68;100.00;100274.28;4882032;29;20043;-82
2022/10/22 06:03:52;;;;;;;49.20;29.55;;;;;;;15.69;100.00;100280.44;4888763;29;20033;-81
2022/10/22 06:06:24;;;;;;;58.20;31.65;;;;;;;15.75;100.00;100296.50;4884935;29;20037;-82
2022/10/22 06:08:53;;;;;;;;;;;;;;;15.85;100.00;100294.25;4882950;29;20116;-80
2022/10/22 06:11:23;;;;;;;52.50;30.08;;;;;;;15.79;100.00;100300.41;4883358;29;19984;-82
2022/10/22 06:13:50;;;;;;;59.75;33.25;;;;;;;15.69;100.00;100296.47;4880556;29;20467;-81
2022/10/22 06:16:16;;;;;;;51.05;31.90;;;;;;;15.69;100.00;100316.00;4882875;29;20084;-81
2022/10/22 06:18:41;;;;;;;63.42;33.55;;;;;;;15.50;100.00;100316.75;4882430;29;20045;-82
2022/10/22 06:21:14;;;;;;;54.72;32.95;;;;;;;15.53;100.00;100308.34;4882648;29;20055;-84
2022/10/22 06:23:41;;;;;;;64.95;31.95;;;;;;;15.67;100.00;100330.59;4885512;29;20047;-84
2022/10/22 06:26:08;;;;;;;53.78;32.65;;;;;;;15.73;100.00;100325.28;4883347;29;20112;-83
2022/10/22 06:28:34;;;;;;;56.83;33.25;;;;;;;15.66;100.00;100337.78;4884546;29;20041;-83
2022/10/22 06:31:02;;;;;;;62.22;34.53;;;;;;;15.54;100.00;100342.06;4883660;29;20442;-87
2022/10/22 06:33:31;;;;;;;59.20;33.03;;;;;;;15.59;100.00;100349.47;4880585;29;20159;-83
2022/10/22 06:36:07;;;;;;;59.63;31.88;;;;;;;15.74;100.00;100345.59;4881408;29;20415;-84
2022/10/22 06:38:33;;;;;;;59.28;34.20;;;;;;;15.64;100.00;100342.50;4881745;29;20056;-84
2022/10/22 06:41:03;;;;;;;60.75;36.10;;;;;;;15.61;100.00;100345.56;4881077;29;20127;-84
2022/10/22 06:43:29;;;;;;;75.22;39.08;;;;;;;15.61;100.00;100356.25;4881534;29;20438;-82
2022/10/22 06:46:01;;;;;;;71.75;39.70;;;;;;;15.58;100.00;100343.28;4881808;29;20045;-82
2022/10/22 06:48:27;;;;;;;71.03;39.20;;;;;;;15.64;100.00;100350.53;4883889;29;20037;-84
2022/10/22 06:50:53;;;;;;;77.63;42.75;;;;;;;15.55;100.00;100359.72;4884573;29;20044;-85
2022/10/22 06:53:19;;;;;;;88.82;44.88;;;;;;;15.55;100.00;100361.56;4880439;29;20053;-88
2022/10/22 06:55:44;;;;;;;82.50;43.75;;;;;;;15.65;100.00;100365.50;4885351;29;20029;-86
2022/10/22 06:58:13;;;;;;;84.00;44.90;;;;;;;15.73;100.00;100367.19;4891054;29;20047;-84
2022/10/22 07:00:38;;;;;;;84.53;42.83;;;;;;;15.84;100.00;100367.44;4884433;29;20123;-82
2022/10/22 07:03:03;;;;;;;81.90;43.20;;;;;;;16.09;100.00;100380.28;4882341;29;20148;-84
2022/10/22 07:05:29;;;;;;;67.25;39.63;;;;;;;16.47;100.00;100392.13;4882093;29;20521;-84
2022/10/22 07:07:55;;;;;;;73.18;40.65;;;;;;;16.47;100.00;100410.84;4880204;29;20029;-83
2022/10/22 07:10:23;;;;;;;68.00;37.85;;;;;;;16.63;100.00;100406.97;4881102;29;20052;-83
2022/10/22 07:12:49;;;;;;;71.80;37.53;;;;;;;16.72;100.00;100411.09;4881242;29;20041;-84
2022/10/22 07:15:14;;;;;;;70.43;36.30;;;;;;;16.88;100.00;100416.88;4880707;29;20073;-83
2022/10/22 07:17:40;;;;;;;63.67;37.55;;;;;;;16.88;100.00;100395.47;4881436;29;20040;-83
2022/10/22 07:20:06;;;;;;;58.85;36.17;;;;;;;17.02;100.00;100423.88;4882227;29;20044;-83
2022/10/22 07:22:31;;;;;;;61.08;34.92;;;;;;;17.21;100.00;100421.41;4882244;29;20513;-86
2022/10/22 07:24:57;;;;;;;61.72;34.20;;;;;;;17.45;100.00;100428.78;4879996;29;20037;-83
2022/10/22 07:27:22;;;;;;;68.78;36.10;;;;;;;17.53;100.00;100434.75;4873114;29;20126;-83
2022/10/22 07:29:48;;;;;;;54.90;33.55;;;;;;;17.75;100.00;100440.72;4880552;29;20406;-85
2022/10/22 07:32:13;;;;;;;56.33;31.55;;;;;;;17.87;100.00;100440.88;4879302;29;20080;-86
2022/10/22 07:34:42;;;;;;;52.33;32.95;;;;;;;18.06;100.00;100440.78;4862079;29;20087;-82
2022/10/22 07:37:07;;;;;;;55.58;31.52;;;;;;;18.28;100.00;100444.00;4861877;29;20067;-82
2022/10/22 07:39:33;;;;;;;49.95;30.52;;;;;;;19.00;100.00;100461.56;4861816;29;20121;-81
2022/10/22 07:41:58;;;;;;;55.97;29.30;;;;;;;18.95;100.00;100456.84;4863208;29;20089;-86
2022/10/22 07:44:24;;;;;;;53.40;29.65;;;;;;;18.72;100.00;100453.91;4863584;29;20121;-89
2022/10/22 07:46:50;;;;;;;46.72;27.23;;;;;;;18.59;100.00;100454.00;4864117;29;20439;-86
2022/10/22 07:49:15;;;;;;;58.80;29.52;;;;;;;18.43;100.00;100457.13;4873522;29;20040;-90
2022/10/22 07:51:41;;;;;;;47.67;28.33;;;;;;;18.94;100.00;100452.50;4874840;29;20038;-88
2022/10/22 07:54:06;;;;;;;50.83;26.67;;;;;;;19.06;100.00;100436.50;4874295;29;20098;-85
2022/10/22 07:56:32;;;;;;;51.47;28.92;;;;;;;19.23;100.00;100487.81;4862868;29;20025;-85
2022/10/22 07:58:57;;;;;;;45.42;27.33;;;;;;;19.49;100.00;100484.94;4863609;29;20025;-86
2022/10/22 08:01:23;;;;;;;52.50;28.15;;;;;;;19.09;100.00;100479.88;4864052;29;20064;-83
2022/10/22 08:03:48;;;;;;;45.72;27.90;;;;;;;19.20;100.00;100497.16;4861186;29;20061;-84
2022/10/22 08:06:14;;;;;;;48.00;28.30;;;;;;;18.72;100.00;100488.00;4860173;29;20120;-83
2022/10/22 08:08:41;;;;;;;48.47;28.80;;;;;;;18.32;100.00;100506.13;4862531;29;20040;-83
2022/10/22 08:11:14;;;;;;;53.63;29.98;;;;;;;18.04;100.00;100512.59;4866186;29;20089;-84
2022/10/22 08:13:39;;;;;;;60.90;31.17;;;;;;;17.87;100.00;100500.69;4866601;29;20186;-83
2022/10/22 08:16:05;;;;;;;56.17;31.52;;;;;;;17.84;100.00;100503.78;4864064;29;20108;-82
2022/10/22 08:18:33;;;;;;;59.22;30.65;;;;;;;17.72;100.00;100504.66;4862666;29;20041;-84
2022/10/22 08:31:46;;;;;;;60.13;32.50;;;;;;;17.67;100.00;100534.75;5375022;23;20084;-84
2022/10/22 08:34:12;;;;;;;54.45;31.02;;;;;;;17.67;100.00;100524.03;4896945;29;20474;-83
2022/10/22 08:36:38;;;;;;;55.53;33.30;;;;;;;17.72;100.00;100526.91;4896759;29;20048;-84
2022/10/22 08:39:03;;;;;;;53.47;32.22;;;;;;;17.86;100.00;100523.19;4898041;29;20091;-84
2022/10/22 08:41:29;;;;;;;59.47;33.63;;;;;;;18.00;100.00;100535.50;4897828;29;20474;-84
2022/10/22 08:44:30;;;;;;;56.65;31.30;;;;;;;18.14;100.00;100520.22;4898509;29;20128;-85
2022/10/22 08:46:59;;;;;;;53.80;31.48;;;;;;;18.36;100.00;100524.25;4866136;29;20052;-82
2022/10/22 08:49:28;;;;;;;58.17;31.05;;;;;;;18.29;100.00;100534.22;4899695;29;20064;-84
2022/10/22 08:51:56;;;;;;;57.97;30.83;;;;;;;18.21;100.00;100530.91;4900058;29;20036;-84
2022/10/22 08:54:35;;;;;;;54.70;31.08;;;;;;;18.07;100.00;100530.97;4898074;29;20044;-83
2022/10/22 08:57:15;;;;;;;47.67;29.83;;;;;;;18.10;100.00;100527.03;4899526;29;20510;-85
2022/10/22 08:59:47;;;;;;;51.53;31.67;;;;;;;18.33;100.00;100540.78;4898997;29;20041;-85
2022/10/22 09:02:47;;;;;;;44.25;21.98;;;;;;;18.38;100.00;100521.38;4898824;29;20139;-84
2022/10/22 09:05:23;;;;;;;55.15;30.13;;;;;;;18.61;100.00;100527.06;4902014;29;20061;-86
2022/10/22 09:07:49;;;;;;;53.38;29.48;;;;;;;18.97;100.00;100531.81;4903305;29;20041;-83
2022/10/22 09:10:23;;;;;;;47.72;28.52;;;;;;;19.28;100.00;100531.81;4903397;29;20029;-85
2022/10/22 09:12:48;;;;;;;53.97;30.48;;;;;;;19.48;100.00;100537.06;4903858;29;20044;-84
2022/10/22 09:15:16;;;;;;;51.75;28.92;;;;;;;19.29;100.00;100527.28;4902958;29;20036;-84
2022/10/22 09:22:38;;;;;;;54.08;28.85;;;;;;;18.96;100.00;100533.69;4907304;29;20128;-86
2022/10/22 09:25:18;;;;;;;48.25;26.60;;;;;;;19.22;100.00;100545.31;4911884;29;20059;-83
2022/10/22 09:27:44;;;;;;;46.63;27.23;;;;;;;19.28;100.00;100537.19;4901810;29;20111;-84
2022/10/22 09:30:16;;;;;;;46.22;27.40;;;;;;;19.21;100.00;100549.84;4903937;29;20450;-85
2022/10/22 09:32:42;;;;;;;52.35;27.15;;;;;;;19.13;100.00;100542.03;4903801;29;20037;-85
2022/10/22 09:35:11;;;;;;;48.13;27.25;;;;;;;19.06;100.00;100547.47;4903216;29;20035;-83
2022/10/22 09:37:50;;;;;;;52.45;27.85;;;;;;;19.16;100.00;100540.81;4886835;29;20040;-84
2022/10/22 09:40:16;;;;;;;47.67;27.30;;;;;;;19.32;100.00;100530.31;4905039;29;20041;-85
2022/10/22 09:42:43;;;;;;;54.38;27.08;;;;;;;19.52;100.00;100546.34;4904395;29;20145;-84
2022/10/22 09:45:21;;;;;;;49.35;26.33;;;;;;;19.92;100.00;100555.69;4905362;29;20037;-84
2022/10/22 09:47:47;;;;;;;43.28;25.80;;;;;;;20.13;100.00;100552.56;4905486;29;20036;-85
2022/10/22 09:50:27;;;;;;;43.83;24.73;;;;;;;20.28;100.00;100537.97;4903504;29;20061;-86
2022/10/22 09:53:03;;;;;;;53.00;27.27;;;;;;;20.42;100.00;100542.13;4904814;29;20048;-83
2022/10/22 09:55:28;;;;;;;49.92;26.02;;;;;;;20.81;100.00;100538.94;4904879;29;20033;-84
2022/10/22 09:57:57;;;;;;;40.25;23.05;;;;;;;21.53;100.00;100535.16;4904729;29;20397;-84
2022/10/22 10:00:25;;;;;;;43.03;23.20;;;;;;;21.96;100.00;100551.03;4906215;29;20051;-85
2022/10/22 10:02:55;;;;;;;42.65;24.10;;;;;;;21.62;100.00;100559.88;4907418;29;20037;-85
2022/10/22 10:05:27;;;;;;;42.78;24.38;;;;;;;21.24;100.00;100568.41;4905370;29;20032;-84
2022/10/22 10:07:53;;;;;;;46.83;24.27;;;;;;;20.78;100.00;100555.53;4902971;29;20032;-85
2022/10/22 10:10:34;;;;;;;42.05;23.70;;;;;;;21.56;100.00;100568.91;4904646;29;20032;-84
2022/10/22 10:13:29;;;;;;;44.63;24.10;;;;;;;22.81;100.00;100572.81;4904563;29;20037;-84
2022/10/22 10:16:00;;;;;;;45.15;23.60;;;;;;;22.60;100.00;100568.06;4903400;29;20041;-85
2022/10/22 10:18:46;;;;;;;45.00;23.40;;;;;;;22.97;100.00;100574.75;4904717;29;20071;-85
2022/10/22 10:21:26;;;;;;;45.35;22.77;;;;;;;24.22;100.00;100581.72;4904681;29;20040;-85
2022/10/22 10:24:16;;;;;;;52.45;23.65;;;;;;;24.06;100.00;100569.81;4905049;29;20394;-84
2022/10/22 10:26:56;;;;;;;44.20;23.30;;;;;;;23.91;100.00;100575.81;4905036;29;20044;-83
2022/10/22 10:29:46;;;;;;;43.85;23.83;;;;;;;23.02;100.00;100577.56;4904884;29;20040;-84
2022/10/22 10:32:37;;;;;;;47.05;24.42;;;;;;;22.27;100.00;100573.28;4905307;29;20041;-85
2022/10/22 10:35:20;;;;;;;42.15;22.75;;;;;;;22.36;100.00;100582.66;4889840;29;20041;-82
2022/10/22 10:38:33;;;;;;;52.47;23.70;;;;;;;22.34;100.00;100574.00;4907827;29;20124;-87
2022/10/22 10:41:28;;;;;;;44.08;23.05;;;;;;;22.11;100.00;100574.81;4865928;29;20033;-86
2022/10/22 10:44:31;;;;;;;53.97;21.52;;;;;;;22.03;100.00;100573.31;4865764;29;20097;-84
2022/10/22 10:47:15;;;;;;;49.90;22.05;;;;;;;21.75;100.00;100578.56;4901723;29;20053;-84
2022/10/22 10:49:42;;;;;;;45.90;21.80;;;;;;;21.63;100.00;100581.25;4903372;29;20398;-86
2022/10/22 10:52:08;;;;;;;48.15;22.27;;;;;;;21.60;100.00;100583.59;4904977;29;20521;-86
2022/10/22 10:55:31;;;;;;;46.90;20.05;;;;;;;21.79;100.00;100592.41;4904782;29;20056;-83
2022/10/22 10:58:29;;;;;;;49.72;22.30;;;;;;;21.76;100.00;100588.28;4899082;29;20044;-86
2022/10/22 11:01:02;;;;;;;57.42;24.38;;;;;;;21.92;100.00;100579.53;4905034;29;20060;-85
2022/10/22 11:03:39;;;;;;;55.45;23.25;;;;;;;21.87;100.00;100579.41;4904888;29;20041;-84
2022/10/22 11:06:13;;;;;;;51.80;24.83;;;;;;;22.01;100.00;100590.78;4905793;29;20064;-85
2022/10/22 11:08:56;;;;;;;46.70;23.67;;;;;;;22.02;100.00;100593.25;4905057;29;20040;-86
2022/10/22 11:11:38;;;;;;;47.00;23.20;;;;;;;21.90;100.00;100587.06;4904155;29;20112;-86
2022/10/22 11:14:19;;;;;;;47.70;25.08;;;;;;;21.99;100.00;100588.34;4904162;29;20043;-85
2022/10/22 11:16:54;;;;;;;55.10;25.15;;;;;;;22.00;100.00;100592.69;4904161;29;20042;-86
2022/10/22 11:19:34;;;;;;;41.47;21.80;;;;;;;21.92;100.00;100582.22;4904171;29;20040;-84
2022/10/22 11:22:12;;;;;;;50.53;23.35;;;;;;;21.92;100.00;100590.31;4906434;29;20043;-85
2022/10/22 11:24:52;;;;;;;52.03;24.13;;;;;;;22.07;100.00;100596.06;4904874;29;20036;-85
2022/10/22 11:27:39;;;;;;;51.67;24.38;;;;;;;22.01;100.00;100590.78;4903814;29;20045;-85
2022/10/22 11:30:15;;;;;;;52.83;22.92;;;;;;;21.90;100.00;100595.16;4904977;29;20040;-86
2022/10/22 11:32:48;;;;;;;42.35;23.25;;;;;;;21.91;100.00;100596.78;4903903;29;20072;-86
2022/10/22 11:35:37;;;;;;;48.83;24.00;;;;;;;21.99;100.00;100599.13;4903356;29;20112;-84
2022/10/22 11:38:05;;;;;;;37.95;21.92;;;;;;;22.08;100.00;100592.31;4907489;29;20117;-84
2022/10/22 11:40:38;;;;;;;41.17;22.23;;;;;;;22.04;100.00;100607.34;4903963;29;20546;-86
2022/10/22 11:43:25;;;;;;;51.15;22.42;;;;;;;21.92;100.00;100614.63;4906659;29;20040;-87